Cochise — WDD8952 — position and weather

sailwx.info

Track history (hours):
 
Tides and Currents Weather Stations Pressure Air Temp Water Temp Dewpoint Dewpoint Depression Visibility Wind Speed Wind Dir Waves Ship Positions

Cochise

More information available from US FCC via Universal Licensing System and Coast Guard Vessel Documentation Center.

Last reported at 2014-Jul-26 03:29 UTC. Time now 2014-Jul-26 05:07 UTC.
Position N 33°46' W 118°13'.

Length 32 m; draft 4.9 m.

Type: Towing. MMSI: 367304990.

Date/timePositionNaut miles runAvg speedWind from/ knotsBaromVisibWave heightAir tempDewpointWater temp
2014-Jul-26 03:29N 33°46' W 118°13'0 0.0
2014-Jul-26 01:17N 33°46' W 118°13'0 0.2
2014-Jul-26 00:33N 33°46' W 118°13'3 3.4
2014-Jul-25 23:32N 33°44' W 118°16'0 0.0
2014-Jul-25 22:14N 33°44' W 118°16'0 0.0
2014-Jul-25 21:32N 33°44' W 118°16'2 2.3
2014-Jul-25 20:34N 33°43' W 118°14'2 0.4
2014-Jul-25 16:33N 33°45' W 118°13'13 6.3
2014-Jul-25 14:33N 33°36' W 118°24'10 9.8
2014-Jul-25 13:33N 33°37' W 118°35'10 9.6
2014-Jul-25 12:30N 33°38' W 118°47'9 9.6
2014-Jul-25 11:33N 33°39' W 118°58'13 9.0
2014-Jul-25 10:05N 33°40' W 119°14'6 9.3
2014-Jul-25 09:27N 33°41' W 119°21'19 9.6
2014-Jul-25 07:27N 33°43' W 119°44'9 9.8
2014-Jul-25 06:33N 33°44' W 119°54'10 9.6
2014-Jul-25 05:33N 33°45' W 120°06'10 9.6
2014-Jul-25 04:33N 33°48' W 120°17'1010.0
2014-Jul-25 03:33N 33°52' W 120°28'10 9.8
2014-Jul-25 02:33N 33°56' W 120°39'10 9.7
2014-Jul-25 01:33N 34°03' W 120°46'1010.0
2014-Jul-25 00:33N 34°11' W 120°53'1010.0
2014-Jul-24 23:33N 34°20' W 120°60'1010.1
2014-Jul-24 22:33N 34°28' W 121°06'10 9.8
2014-Jul-24 21:33N 34°37' W 121°13'10 9.8
2014-Jul-24 20:33N 34°45' W 121°19'10 9.6
2014-Jul-24 19:33N 34°53' W 121°26'9 9.4
2014-Jul-24 18:33N 35°01' W 121°32'9 9.2
2014-Jul-24 17:33N 35°08' W 121°38'9 9.1
2014-Jul-24 16:33N 35°16' W 121°44'9 9.4
2014-Jul-24 15:33N 35°24' W 121°51'10 9.5
2014-Jul-24 14:33N 35°32' W 121°57'10 9.7
2014-Jul-24 13:33N 35°40' W 122°04'10 9.7
2014-Jul-24 12:33N 35°48' W 122°10'10 9.7
2014-Jul-24 11:33N 35°56' W 122°16'10 9.7
2014-Jul-24 10:33N 36°04' W 122°23'10 9.7
2014-Jul-24 09:33N 36°13' W 122°29'10 9.6
2014-Jul-24 08:33N 36°21' W 122°36'10 9.8
2014-Jul-24 07:33N 36°29' W 122°41'10 9.7
2014-Jul-24 06:33N 36°38' W 122°47'10 9.8
2014-Jul-24 05:32N 36°47' W 122°52'10 9.9
2014-Jul-24 04:33N 36°56' W 122°58'1010.1
2014-Jul-24 03:33N 37°05' W 123°03'1010.3
2014-Jul-24 02:33N 37°14' W 123°09'1010.3
2014-Jul-24 01:33N 37°24' W 123°14'10 9.9
2014-Jul-24 00:33N 37°32' W 123°20'1010.0
2014-Jul-23 23:33N 37°42' W 123°24'10 9.8
2014-Jul-23 22:33N 37°51' W 123°29'10 9.8
2014-Jul-23 21:33N 37°60' W 123°34'1010.2
2014-Jul-23 20:33N 38°09' W 123°38'10 9.9
2014-Jul-23 19:33N 38°19' W 123°43'10 9.7
2014-Jul-23 18:33N 38°28' W 123°47'  
2014-Jul-20 12:33N 38°41' W 124°08'9 8.6
2014-Jul-20 11:33N 38°35' W 123°59'9 8.6
2014-Jul-20 10:29N 38°29' W 123°51'8 8.7
2014-Jul-20 09:33N 38°24' W 123°43'8 8.3
2014-Jul-20 08:34N 38°19' W 123°35'8 8.3
2014-Jul-20 07:33N 38°14' W 123°26'8 8.2
2014-Jul-20 06:33N 38°08' W 123°18'9 8.6
2014-Jul-20 05:28N 38°01' W 123°11'8 8.9
2014-Jul-20 04:33N 37°56' W 123°03'12 9.0
2014-Jul-20 03:12N 37°50' W 122°49'6 9.1
2014-Jul-20 02:34N 37°47' W 122°43'8 8.3
2014-Jul-20 01:34N 37°48' W 122°32'8 7.6
2014-Jul-20 00:34N 37°52' W 122°24'3 3.1
2014-Jul-19 23:34N 37°55' W 122°22'0 0.3
2014-Jul-19 22:33N 37°55' W 122°22'3 3.3
2014-Jul-19 21:34N 37°56' W 122°26'9 9.0
2014-Jul-19 20:33N 38°03' W 122°19'8 0.4
2014-Jul-18 23:18N 38°02' W 122°08'5 6.9
2014-Jul-18 22:33N 38°04' W 122°14'8 8.4
2014-Jul-18 21:33N 38°00' W 122°24'7 6.6
2014-Jul-18 20:33N 37°54' W 122°26'3 3.2
2014-Jul-18 19:32N 37°55' W 122°22'0 0.0
2014-Jul-18 18:32N 37°55' W 122°22'0 0.0
2014-Jul-18 17:33N 37°55' W 122°22'0 0.0
2014-Jul-18 16:33N 37°55' W 122°22'0 0.0
2014-Jul-18 15:32N 37°55' W 122°22'0 0.0
2014-Jul-18 14:32N 37°55' W 122°22'0 0.0
2014-Jul-18 13:32N 37°55' W 122°22'0 0.0
2014-Jul-18 12:32N 37°55' W 122°22'0 0.0
2014-Jul-18 11:32N 37°55' W 122°22'0 0.0
2014-Jul-18 10:32N 37°55' W 122°22'0 0.0
2014-Jul-18 09:32N 37°55' W 122°22'0 0.0
2014-Jul-18 08:32N 37°55' W 122°22'0 0.0
2014-Jul-18 07:32N 37°55' W 122°22'0 0.0
2014-Jul-18 06:32N 37°55' W 122°22'0 0.0
2014-Jul-18 05:32N 37°55' W 122°22'0 0.0
2014-Jul-18 04:32N 37°55' W 122°22'0 0.0
2014-Jul-18 03:32N 37°55' W 122°22'0 0.0
2014-Jul-18 02:32N 37°55' W 122°22'0 0.0
2014-Jul-18 01:32N 37°55' W 122°22'0 0.0
2014-Jul-18 00:30N 37°55' W 122°22'0 0.0
2014-Jul-17 23:32N 37°55' W 122°22'0 0.0
2014-Jul-17 22:32N 37°55' W 122°22'0 0.0
2014-Jul-17 21:32N 37°55' W 122°22'0 0.0
2014-Jul-17 20:32N 37°55' W 122°22'0 0.0
2014-Jul-17 19:32N 37°55' W 122°22'0 0.0
2014-Jul-17 18:32N 37°55' W 122°22'0 0.0
2014-Jul-17 17:32N 37°55' W 122°22'0 0.0
2014-Jul-17 16:29N 37°55' W 122°22'0 0.0
2014-Jul-17 15:32N 37°55' W 122°22'0 0.0
2014-Jul-17 14:32N 37°55' W 122°22'0 0.0
2014-Jul-17 13:32N 37°55' W 122°22'0 0.0
2014-Jul-17 12:32N 37°55' W 122°22'0 0.0
2014-Jul-17 11:32N 37°55' W 122°22'0 0.0
2014-Jul-17 10:32N 37°55' W 122°22'0 0.0
2014-Jul-17 09:32N 37°55' W 122°22'0 0.0
2014-Jul-17 08:32N 37°55' W 122°22'0 0.0
2014-Jul-17 07:32N 37°55' W 122°22'0 0.0
2014-Jul-17 06:32N 37°55' W 122°22'0 0.0
2014-Jul-17 05:32N 37°55' W 122°22'0 0.0
2014-Jul-17 04:32N 37°55' W 122°22'0 0.0
2014-Jul-17 03:32N 37°55' W 122°22'0 0.0
2014-Jul-17 02:32N 37°55' W 122°22'0 0.0
2014-Jul-17 01:32N 37°55' W 122°22'0 0.0
2014-Jul-17 00:32N 37°55' W 122°22'0 0.0
2014-Jul-16 23:32N 37°55' W 122°22'0 0.0
2014-Jul-16 22:32N 37°55' W 122°22'0 0.0
2014-Jul-16 21:32N 37°55' W 122°22'0 0.0
2014-Jul-16 20:32N 37°55' W 122°22'0 0.0
2014-Jul-16 19:32N 37°55' W 122°22'0 0.0
2014-Jul-16 18:32N 37°55' W 122°22'0 0.0
2014-Jul-16 17:32N 37°55' W 122°22'0 0.0
2014-Jul-16 16:32N 37°55' W 122°22'0 0.0
2014-Jul-16 15:32N 37°55' W 122°22'0 0.0
2014-Jul-16 14:32N 37°55' W 122°22'0 0.0
2014-Jul-16 13:32N 37°55' W 122°22'0 0.0
2014-Jul-16 12:32N 37°55' W 122°22'0 0.0
2014-Jul-16 11:32N 37°55' W 122°22'0 0.0
2014-Jul-16 10:32N 37°55' W 122°22'0 0.0
2014-Jul-16 09:32N 37°55' W 122°22'0 0.0
2014-Jul-16 08:32N 37°55' W 122°22'0 0.0
2014-Jul-16 07:32N 37°55' W 122°22'0 0.0
2014-Jul-16 06:32N 37°55' W 122°22'0 0.0
2014-Jul-16 05:32N 37°55' W 122°22'0 0.0
2014-Jul-16 04:32N 37°55' W 122°22'0 0.0
2014-Jul-16 03:32N 37°55' W 122°22'  
Track history (hours):
 
Tides and Currents Weather Stations Pressure Air Temp Water Temp Dewpoint Dewpoint Depression Visibility Wind Speed Wind Dir Waves Ship Positions

Cochise

More information available from US FCC via Universal Licensing System and Coast Guard Vessel Documentation Center.

Last reported at 2014-Jul-26 03:29 UTC. Time now 2014-Jul-26 05:07 UTC.
Position N 33°46' W 118°13'.

Length 32 m; draft 4.9 m.

Type: Towing. MMSI: 367304990.

Date/timePositionNaut miles runAvg speedWind from/ knotsBaromVisibWave heightAir tempDewpointWater temp
2014-Jul-26 03:29N 33°46' W 118°13'0 0.0
2014-Jul-26 01:17N 33°46' W 118°13'0 0.2
2014-Jul-26 00:33N 33°46' W 118°13'3 3.4
2014-Jul-25 23:32N 33°44' W 118°16'0 0.0
2014-Jul-25 22:14N 33°44' W 118°16'0 0.0
2014-Jul-25 21:32N 33°44' W 118°16'2 2.3
2014-Jul-25 20:34N 33°43' W 118°14'2 0.4
2014-Jul-25 16:33N 33°45' W 118°13'13 6.3
2014-Jul-25 14:33N 33°36' W 118°24'10 9.8
2014-Jul-25 13:33N 33°37' W 118°35'10 9.6
2014-Jul-25 12:30N 33°38' W 118°47'9 9.6
2014-Jul-25 11:33N 33°39' W 118°58'13 9.0
2014-Jul-25 10:05N 33°40' W 119°14'6 9.3
2014-Jul-25 09:27N 33°41' W 119°21'19 9.6
2014-Jul-25 07:27N 33°43' W 119°44'9 9.8
2014-Jul-25 06:33N 33°44' W 119°54'10 9.6
2014-Jul-25 05:33N 33°45' W 120°06'10 9.6
2014-Jul-25 04:33N 33°48' W 120°17'1010.0
2014-Jul-25 03:33N 33°52' W 120°28'10 9.8
2014-Jul-25 02:33N 33°56' W 120°39'10 9.7
2014-Jul-25 01:33N 34°03' W 120°46'1010.0
2014-Jul-25 00:33N 34°11' W 120°53'1010.0
2014-Jul-24 23:33N 34°20' W 120°60'1010.1
2014-Jul-24 22:33N 34°28' W 121°06'10 9.8
2014-Jul-24 21:33N 34°37' W 121°13'10 9.8
2014-Jul-24 20:33N 34°45' W 121°19'10 9.6
2014-Jul-24 19:33N 34°53' W 121°26'9 9.4
2014-Jul-24 18:33N 35°01' W 121°32'9 9.2
2014-Jul-24 17:33N 35°08' W 121°38'9 9.1
2014-Jul-24 16:33N 35°16' W 121°44'9 9.4
2014-Jul-24 15:33N 35°24' W 121°51'10 9.5
2014-Jul-24 14:33N 35°32' W 121°57'10 9.7
2014-Jul-24 13:33N 35°40' W 122°04'10 9.7
2014-Jul-24 12:33N 35°48' W 122°10'10 9.7
2014-Jul-24 11:33N 35°56' W 122°16'10 9.7
2014-Jul-24 10:33N 36°04' W 122°23'10 9.7
2014-Jul-24 09:33N 36°13' W 122°29'10 9.6
2014-Jul-24 08:33N 36°21' W 122°36'10 9.8
2014-Jul-24 07:33N 36°29' W 122°41'10 9.7
2014-Jul-24 06:33N 36°38' W 122°47'10 9.8
2014-Jul-24 05:32N 36°47' W 122°52'10 9.9
2014-Jul-24 04:33N 36°56' W 122°58'1010.1
2014-Jul-24 03:33N 37°05' W 123°03'1010.3
2014-Jul-24 02:33N 37°14' W 123°09'1010.3
2014-Jul-24 01:33N 37°24' W 123°14'10 9.9
2014-Jul-24 00:33N 37°32' W 123°20'1010.0
2014-Jul-23 23:33N 37°42' W 123°24'10 9.8
2014-Jul-23 22:33N 37°51' W 123°29'10 9.8
2014-Jul-23 21:33N 37°60' W 123°34'1010.2
2014-Jul-23 20:33N 38°09' W 123°38'10 9.9
2014-Jul-23 19:33N 38°19' W 123°43'10 9.7
2014-Jul-23 18:33N 38°28' W 123°47'  
2014-Jul-20 12:33N 38°41' W 124°08'9 8.6
2014-Jul-20 11:33N 38°35' W 123°59'9 8.6
2014-Jul-20 10:29N 38°29' W 123°51'8 8.7
2014-Jul-20 09:33N 38°24' W 123°43'8 8.3
2014-Jul-20 08:34N 38°19' W 123°35'8 8.3
2014-Jul-20 07:33N 38°14' W 123°26'8 8.2
2014-Jul-20 06:33N 38°08' W 123°18'9 8.6
2014-Jul-20 05:28N 38°01' W 123°11'8 8.9
2014-Jul-20 04:33N 37°56' W 123°03'12 9.0
2014-Jul-20 03:12N 37°50' W 122°49'6 9.1
2014-Jul-20 02:34N 37°47' W 122°43'8 8.3
2014-Jul-20 01:34N 37°48' W 122°32'8 7.6
2014-Jul-20 00:34N 37°52' W 122°24'3 3.1
2014-Jul-19 23:34N 37°55' W 122°22'0 0.3
2014-Jul-19 22:33N 37°55' W 122°22'3 3.3
2014-Jul-19 21:34N 37°56' W 122°26'9 9.0
2014-Jul-19 20:33N 38°03' W 122°19'8 0.4
2014-Jul-18 23:18N 38°02' W 122°08'5 6.9
2014-Jul-18 22:33N 38°04' W 122°14'8 8.4
2014-Jul-18 21:33N 38°00' W 122°24'7 6.6
2014-Jul-18 20:33N 37°54' W 122°26'3 3.2
2014-Jul-18 19:32N 37°55' W 122°22'0 0.0
2014-Jul-18 18:32N 37°55' W 122°22'0 0.0
2014-Jul-18 17:33N 37°55' W 122°22'0 0.0
2014-Jul-18 16:33N 37°55' W 122°22'0 0.0
2014-Jul-18 15:32N 37°55' W 122°22'0 0.0
2014-Jul-18 14:32N 37°55' W 122°22'0 0.0
2014-Jul-18 13:32N 37°55' W 122°22'0 0.0
2014-Jul-18 12:32N 37°55' W 122°22'0 0.0
2014-Jul-18 11:32N 37°55' W 122°22'0 0.0
2014-Jul-18 10:32N 37°55' W 122°22'0 0.0
2014-Jul-18 09:32N 37°55' W 122°22'0 0.0
2014-Jul-18 08:32N 37°55' W 122°22'0 0.0
2014-Jul-18 07:32N 37°55' W 122°22'0 0.0
2014-Jul-18 06:32N 37°55' W 122°22'0 0.0
2014-Jul-18 05:32N 37°55' W 122°22'0 0.0
2014-Jul-18 04:32N 37°55' W 122°22'0 0.0
2014-Jul-18 03:32N 37°55' W 122°22'0 0.0
2014-Jul-18 02:32N 37°55' W 122°22'0 0.0
2014-Jul-18 01:32N 37°55' W 122°22'0 0.0
2014-Jul-18 00:30N 37°55' W 122°22'0 0.0
2014-Jul-17 23:32N 37°55' W 122°22'0 0.0
2014-Jul-17 22:32N 37°55' W 122°22'0 0.0
2014-Jul-17 21:32N 37°55' W 122°22'0 0.0
2014-Jul-17 20:32N 37°55' W 122°22'0 0.0
2014-Jul-17 19:32N 37°55' W 122°22'0 0.0
2014-Jul-17 18:32N 37°55' W 122°22'0 0.0
2014-Jul-17 17:32N 37°55' W 122°22'0 0.0
2014-Jul-17 16:29N 37°55' W 122°22'0 0.0
2014-Jul-17 15:32N 37°55' W 122°22'0 0.0
2014-Jul-17 14:32N 37°55' W 122°22'0 0.0
2014-Jul-17 13:32N 37°55' W 122°22'0 0.0
2014-Jul-17 12:32N 37°55' W 122°22'0 0.0
2014-Jul-17 11:32N 37°55' W 122°22'0 0.0
2014-Jul-17 10:32N 37°55' W 122°22'0 0.0
2014-Jul-17 09:32N 37°55' W 122°22'0 0.0
2014-Jul-17 08:32N 37°55' W 122°22'0 0.0
2014-Jul-17 07:32N 37°55' W 122°22'0 0.0
2014-Jul-17 06:32N 37°55' W 122°22'0 0.0
2014-Jul-17 05:32N 37°55' W 122°22'0 0.0
2014-Jul-17 04:32N 37°55' W 122°22'0 0.0
2014-Jul-17 03:32N 37°55' W 122°22'0 0.0
2014-Jul-17 02:32N 37°55' W 122°22'0 0.0
2014-Jul-17 01:32N 37°55' W 122°22'0 0.0
2014-Jul-17 00:32N 37°55' W 122°22'0 0.0
2014-Jul-16 23:32N 37°55' W 122°22'0 0.0
2014-Jul-16 22:32N 37°55' W 122°22'0 0.0
2014-Jul-16 21:32N 37°55' W 122°22'0 0.0
2014-Jul-16 20:32N 37°55' W 122°22'0 0.0
2014-Jul-16 19:32N 37°55' W 122°22'0 0.0
2014-Jul-16 18:32N 37°55' W 122°22'0 0.0
2014-Jul-16 17:32N 37°55' W 122°22'0 0.0
2014-Jul-16 16:32N 37°55' W 122°22'0 0.0
2014-Jul-16 15:32N 37°55' W 122°22'0 0.0
2014-Jul-16 14:32N 37°55' W 122°22'0 0.0
2014-Jul-16 13:32N 37°55' W 122°22'0 0.0
2014-Jul-16 12:32N 37°55' W 122°22'0 0.0
2014-Jul-16 11:32N 37°55' W 122°22'0 0.0
2014-Jul-16 10:32N 37°55' W 122°22'0 0.0
2014-Jul-16 09:32N 37°55' W 122°22'0 0.0
2014-Jul-16 08:32N 37°55' W 122°22'0 0.0
2014-Jul-16 07:32N 37°55' W 122°22'0 0.0
2014-Jul-16 06:32N 37°55' W 122°22'0 0.0
2014-Jul-16 05:32N 37°55' W 122°22'0 0.0
2014-Jul-16 04:32N 37°55' W 122°22'0 0.0
2014-Jul-16 03:32N 37°55' W 122°22'  

Dump ship's entire track history